sensor_id;sensor_type;location;lat;lon;timestamp;P1;durP1;ratioP1;P2;durP2;ratioP2
36291;SDS011;22327;51.208;6.418;2022-07-21T00:00:01;8.05;;;4.50;;
36291;SDS011;22327;51.208;6.418;2022-07-21T00:02:32;5.22;;;4.72;;
36291;SDS011;22327;51.208;6.418;2022-07-21T00:04:58;6.22;;;5.13;;
36291;SDS011;22327;51.208;6.418;2022-07-21T00:07:23;5.35;;;4.93;;
36291;SDS011;22327;51.208;6.418;2022-07-21T00:09:49;5.70;;;5.20;;
36291;SDS011;22327;51.208;6.418;2022-07-21T00:12:15;6.43;;;4.82;;
36291;SDS011;22327;51.208;6.418;2022-07-21T00:14:40;6.07;;;5.47;;
36291;SDS011;22327;51.208;6.418;2022-07-21T00:17:06;5.55;;;4.85;;
36291;SDS011;22327;51.208;6.418;2022-07-21T00:19:32;6.32;;;5.70;;
36291;SDS011;22327;51.208;6.418;2022-07-21T00:21:58;5.30;;;4.80;;
36291;SDS011;22327;51.208;6.418;2022-07-21T00:24:23;5.85;;;5.25;;
36291;SDS011;22327;51.208;6.418;2022-07-21T00:26:49;6.30;;;5.70;;
36291;SDS011;22327;51.208;6.418;2022-07-21T00:29:15;6.30;;;5.45;;
36291;SDS011;22327;51.208;6.418;2022-07-21T00:31:40;6.93;;;5.72;;
36291;SDS011;22327;51.208;6.418;2022-07-21T00:34:06;6.65;;;5.75;;
36291;SDS011;22327;51.208;6.418;2022-07-21T00:36:32;6.50;;;5.68;;
36291;SDS011;22327;51.208;6.418;2022-07-21T00:38:57;5.88;;;5.25;;
36291;SDS011;22327;51.208;6.418;2022-07-21T00:41:23;6.60;;;5.90;;
36291;SDS011;22327;51.208;6.418;2022-07-21T00:43:49;7.15;;;5.78;;
36291;SDS011;22327;51.208;6.418;2022-07-21T00:46:14;6.25;;;5.65;;
36291;SDS011;22327;51.208;6.418;2022-07-21T00:48:40;6.95;;;5.45;;
36291;SDS011;22327;51.208;6.418;2022-07-21T00:51:06;5.97;;;5.47;;
36291;SDS011;22327;51.208;6.418;2022-07-21T00:53:31;6.35;;;5.15;;
36291;SDS011;22327;51.208;6.418;2022-07-21T00:55:58;6.15;;;5.55;;
36291;SDS011;22327;51.208;6.418;2022-07-21T00:58:25;6.45;;;5.07;;
36291;SDS011;22327;51.208;6.418;2022-07-21T01:00:50;6.47;;;5.30;;
36291;SDS011;22327;51.208;6.418;2022-07-21T01:03:16;7.00;;;5.50;;
36291;SDS011;22327;51.208;6.418;2022-07-21T01:05:42;5.75;;;5.20;;
36291;SDS011;22327;51.208;6.418;2022-07-21T01:08:08;6.80;;;5.70;;
36291;SDS011;22327;51.208;6.418;2022-07-21T01:10:33;5.50;;;4.78;;
36291;SDS011;22327;51.208;6.418;2022-07-21T01:13:00;7.25;;;5.45;;
36291;SDS011;22327;51.208;6.418;2022-07-21T01:15:26;6.47;;;5.80;;
36291;SDS011;22327;51.208;6.418;2022-07-21T01:17:51;5.97;;;5.30;;
36291;SDS011;22327;51.208;6.418;2022-07-21T01:20:18;6.90;;;4.85;;
36291;SDS011;22327;51.208;6.418;2022-07-21T01:22:47;7.22;;;5.00;;
36291;SDS011;22327;51.208;6.418;2022-07-21T01:25:17;6.78;;;4.90;;
36291;SDS011;22327;51.208;6.418;2022-07-21T01:27:43;5.70;;;5.15;;
36291;SDS011;22327;51.208;6.418;2022-07-21T01:30:10;7.88;;;5.32;;
36291;SDS011;22327;51.208;6.418;2022-07-21T01:32:36;5.30;;;4.80;;
36291;SDS011;22327;51.208;6.418;2022-07-21T01:35:04;5.72;;;5.22;;
36291;SDS011;22327;51.208;6.418;2022-07-21T01:37:31;6.13;;;5.30;;
36291;SDS011;22327;51.208;6.418;2022-07-21T01:40:01;6.75;;;5.20;;
36291;SDS011;22327;51.208;6.418;2022-07-21T01:42:45;6.22;;;5.65;;
36291;SDS011;22327;51.208;6.418;2022-07-21T01:45:10;6.68;;;5.25;;
36291;SDS011;22327;51.208;6.418;2022-07-21T01:47:36;7.38;;;5.15;;
36291;SDS011;22327;51.208;6.418;2022-07-21T01:50:02;6.10;;;5.50;;
36291;SDS011;22327;51.208;6.418;2022-07-21T01:52:28;5.20;;;4.70;;
36291;SDS011;22327;51.208;6.418;2022-07-21T01:54:53;5.50;;;4.90;;
36291;SDS011;22327;51.208;6.418;2022-07-21T01:57:19;6.60;;;5.07;;
36291;SDS011;22327;51.208;6.418;2022-07-21T01:59:45;5.95;;;5.35;;
36291;SDS011;22327;51.208;6.418;2022-07-21T02:02:10;6.85;;;5.80;;
36291;SDS011;22327;51.208;6.418;2022-07-21T02:04:36;6.45;;;5.82;;
36291;SDS011;22327;51.208;6.418;2022-07-21T02:07:02;6.57;;;5.95;;
36291;SDS011;22327;51.208;6.418;2022-07-21T02:09:28;7.72;;;5.57;;
36291;SDS011;22327;51.208;6.418;2022-07-21T02:11:54;7.25;;;6.07;;
36291;SDS011;22327;51.208;6.418;2022-07-21T02:14:20;7.63;;;6.28;;
36291;SDS011;22327;51.208;6.418;2022-07-21T02:16:45;6.25;;;5.75;;
36291;SDS011;22327;51.208;6.418;2022-07-21T02:19:11;7.07;;;5.85;;
36291;SDS011;22327;51.208;6.418;2022-07-21T02:21:37;6.88;;;6.15;;
36291;SDS011;22327;51.208;6.418;2022-07-21T02:24:03;6.85;;;6.07;;
36291;SDS011;22327;51.208;6.418;2022-07-21T02:26:29;8.57;;;7.30;;
36291;SDS011;22327;51.208;6.418;2022-07-21T02:28:54;9.32;;;6.30;;
36291;SDS011;22327;51.208;6.418;2022-07-21T02:31:20;7.00;;;6.30;;
36291;SDS011;22327;51.208;6.418;2022-07-21T02:33:46;8.27;;;6.45;;
36291;SDS011;22327;51.208;6.418;2022-07-21T02:36:11;7.78;;;5.95;;
36291;SDS011;22327;51.208;6.418;2022-07-21T02:38:37;8.65;;;6.85;;
36291;SDS011;22327;51.208;6.418;2022-07-21T02:41:03;7.63;;;6.43;;
36291;SDS011;22327;51.208;6.418;2022-07-21T02:43:28;7.90;;;7.10;;
36291;SDS011;22327;51.208;6.418;2022-07-21T02:45:54;8.23;;;7.15;;
36291;SDS011;22327;51.208;6.418;2022-07-21T02:48:19;9.40;;;7.10;;
36291;SDS011;22327;51.208;6.418;2022-07-21T02:50:45;6.55;;;5.88;;
36291;SDS011;22327;51.208;6.418;2022-07-21T02:53:15;8.55;;;7.13;;
36291;SDS011;22327;51.208;6.418;2022-07-21T02:55:48;7.18;;;6.47;;
36291;SDS011;22327;51.208;6.418;2022-07-21T02:58:18;10.10;;;7.93;;
36291;SDS011;22327;51.208;6.418;2022-07-21T03:00:48;9.13;;;7.30;;
36291;SDS011;22327;51.208;6.418;2022-07-21T03:03:16;8.75;;;7.85;;
36291;SDS011;22327;51.208;6.418;2022-07-21T03:05:42;8.52;;;7.45;;
36291;SDS011;22327;51.208;6.418;2022-07-21T03:08:08;8.65;;;7.75;;
36291;SDS011;22327;51.208;6.418;2022-07-21T03:10:35;8.98;;;8.07;;
36291;SDS011;22327;51.208;6.418;2022-07-21T03:13:01;10.48;;;8.30;;
36291;SDS011;22327;51.208;6.418;2022-07-21T03:15:26;8.52;;;7.60;;
36291;SDS011;22327;51.208;6.418;2022-07-21T03:17:55;9.43;;;8.38;;
36291;SDS011;22327;51.208;6.418;2022-07-21T03:20:25;9.68;;;8.02;;
36291;SDS011;22327;51.208;6.418;2022-07-21T03:22:55;9.30;;;7.97;;
36291;SDS011;22327;51.208;6.418;2022-07-21T03:25:21;10.30;;;8.25;;
36291;SDS011;22327;51.208;6.418;2022-07-21T03:27:47;8.55;;;7.78;;
36291;SDS011;22327;51.208;6.418;2022-07-21T03:30:13;8.48;;;7.68;;
36291;SDS011;22327;51.208;6.418;2022-07-21T03:32:40;11.75;;;8.23;;
36291;SDS011;22327;51.208;6.418;2022-07-21T03:35:06;9.98;;;8.40;;
36291;SDS011;22327;51.208;6.418;2022-07-21T03:37:42;8.55;;;7.65;;
36291;SDS011;22327;51.208;6.418;2022-07-21T03:40:09;9.20;;;8.13;;
36291;SDS011;22327;51.208;6.418;2022-07-21T03:42:37;10.57;;;8.50;;
36291;SDS011;22327;51.208;6.418;2022-07-21T03:45:02;9.48;;;7.80;;
36291;SDS011;22327;51.208;6.418;2022-07-21T03:47:28;11.10;;;8.50;;
36291;SDS011;22327;51.208;6.418;2022-07-21T03:49:54;9.15;;;8.25;;
36291;SDS011;22327;51.208;6.418;2022-07-21T03:52:19;10.23;;;8.25;;
36291;SDS011;22327;51.208;6.418;2022-07-21T03:54:45;9.50;;;8.38;;
36291;SDS011;22327;51.208;6.418;2022-07-21T03:57:10;9.23;;;8.32;;
36291;SDS011;22327;51.208;6.418;2022-07-21T03:59:36;9.90;;;8.90;;
36291;SDS011;22327;51.208;6.418;2022-07-21T04:02:01;12.73;;;8.93;;
36291;SDS011;22327;51.208;6.418;2022-07-21T04:04:27;11.85;;;8.35;;
36291;SDS011;22327;51.208;6.418;2022-07-21T04:06:52;8.75;;;7.85;;
36291;SDS011;22327;51.208;6.418;2022-07-21T04:09:18;12.30;;;8.98;;
36291;SDS011;22327;51.208;6.418;2022-07-21T04:11:44;10.48;;;9.15;;
36291;SDS011;22327;51.208;6.418;2022-07-21T04:14:10;9.95;;;8.88;;
36291;SDS011;22327;51.208;6.418;2022-07-21T04:16:35;9.52;;;8.27;;
36291;SDS011;22327;51.208;6.418;2022-07-21T04:19:01;7.97;;;7.05;;
36291;SDS011;22327;51.208;6.418;2022-07-21T04:21:27;11.65;;;8.77;;
36291;SDS011;22327;51.208;6.418;2022-07-21T04:23:52;8.93;;;8.02;;
36291;SDS011;22327;51.208;6.418;2022-07-21T04:26:18;10.52;;;8.90;;
36291;SDS011;22327;51.208;6.418;2022-07-21T04:28:43;35.35;;;28.83;;
36291;SDS011;22327;51.208;6.418;2022-07-21T04:31:09;13.40;;;11.98;;
36291;SDS011;22327;51.208;6.418;2022-07-21T04:33:34;38.03;;;32.05;;
36291;SDS011;22327;51.208;6.418;2022-07-21T04:36:00;46.28;;;37.60;;
36291;SDS011;22327;51.208;6.418;2022-07-21T04:38:26;45.88;;;36.05;;
36291;SDS011;22327;51.208;6.418;2022-07-21T04:40:51;20.70;;;17.25;;
36291;SDS011;22327;51.208;6.418;2022-07-21T04:43:17;19.55;;;14.68;;
36291;SDS011;22327;51.208;6.418;2022-07-21T04:45:42;14.77;;;13.15;;
36291;SDS011;22327;51.208;6.418;2022-07-21T04:48:08;14.35;;;10.18;;
36291;SDS011;22327;51.208;6.418;2022-07-21T04:50:34;9.75;;;8.20;;
36291;SDS011;22327;51.208;6.418;2022-07-21T04:52:59;9.63;;;8.10;;
36291;SDS011;22327;51.208;6.418;2022-07-21T04:55:25;9.23;;;7.28;;
36291;SDS011;22327;51.208;6.418;2022-07-21T04:57:51;10.52;;;7.95;;
36291;SDS011;22327;51.208;6.418;2022-07-21T05:00:19;8.82;;;7.82;;
36291;SDS011;22327;51.208;6.418;2022-07-21T05:02:46;8.13;;;6.57;;
36291;SDS011;22327;51.208;6.418;2022-07-21T05:05:12;8.18;;;7.38;;
36291;SDS011;22327;51.208;6.418;2022-07-21T05:07:38;7.82;;;7.10;;
36291;SDS011;22327;51.208;6.418;2022-07-21T05:10:08;9.63;;;7.00;;
36291;SDS011;22327;51.208;6.418;2022-07-21T05:12:35;7.80;;;7.00;;
36291;SDS011;22327;51.208;6.418;2022-07-21T05:15:02;10.20;;;6.38;;
36291;SDS011;22327;51.208;6.418;2022-07-21T05:17:29;8.35;;;7.53;;
36291;SDS011;22327;51.208;6.418;2022-07-21T05:19:55;8.15;;;7.05;;
36291;SDS011;22327;51.208;6.418;2022-07-21T05:22:20;7.93;;;7.03;;
36291;SDS011;22327;51.208;6.418;2022-07-21T05:24:46;7.07;;;6.25;;
36291;SDS011;22327;51.208;6.418;2022-07-21T05:27:11;8.80;;;7.25;;
36291;SDS011;22327;51.208;6.418;2022-07-21T05:29:37;7.05;;;6.32;;
36291;SDS011;22327;51.208;6.418;2022-07-21T05:32:03;6.45;;;5.85;;
36291;SDS011;22327;51.208;6.418;2022-07-21T05:34:29;8.38;;;7.22;;
36291;SDS011;22327;51.208;6.418;2022-07-21T05:36:54;8.95;;;7.65;;
36291;SDS011;22327;51.208;6.418;2022-07-21T05:39:20;10.23;;;7.47;;
36291;SDS011;22327;51.208;6.418;2022-07-21T05:41:46;7.88;;;7.07;;
36291;SDS011;22327;51.208;6.418;2022-07-21T05:44:11;12.48;;;6.28;;
36291;SDS011;22327;51.208;6.418;2022-07-21T05:46:37;7.78;;;6.40;;
36291;SDS011;22327;51.208;6.418;2022-07-21T05:49:03;8.77;;;6.05;;
36291;SDS011;22327;51.208;6.418;2022-07-21T05:51:28;7.47;;;6.50;;
36291;SDS011;22327;51.208;6.418;2022-07-21T05:53:54;7.85;;;6.97;;
36291;SDS011;22327;51.208;6.418;2022-07-21T05:56:19;8.68;;;7.13;;
36291;SDS011;22327;51.208;6.418;2022-07-21T05:58:45;6.68;;;5.97;;
36291;SDS011;22327;51.208;6.418;2022-07-21T06:01:10;6.70;;;5.93;;
36291;SDS011;22327;51.208;6.418;2022-07-21T06:03:42;6.20;;;5.60;;
36291;SDS011;22327;51.208;6.418;2022-07-21T06:06:10;6.40;;;5.80;;
36291;SDS011;22327;51.208;6.418;2022-07-21T06:08:38;7.28;;;6.55;;
36291;SDS011;22327;51.208;6.418;2022-07-21T06:11:05;7.65;;;6.03;;
36291;SDS011;22327;51.208;6.418;2022-07-21T06:13:32;7.68;;;6.85;;
36291;SDS011;22327;51.208;6.418;2022-07-21T06:15:58;9.25;;;5.32;;
36291;SDS011;22327;51.208;6.418;2022-07-21T06:18:23;8.82;;;5.60;;
36291;SDS011;22327;51.208;6.418;2022-07-21T06:20:49;9.23;;;5.00;;
36291;SDS011;22327;51.208;6.418;2022-07-21T06:23:14;6.93;;;5.80;;
36291;SDS011;22327;51.208;6.418;2022-07-21T06:25:40;5.50;;;5.00;;
36291;SDS011;22327;51.208;6.418;2022-07-21T06:28:06;6.18;;;5.10;;
36291;SDS011;22327;51.208;6.418;2022-07-21T06:30:32;5.57;;;4.68;;
36291;SDS011;22327;51.208;6.418;2022-07-21T06:32:57;7.28;;;5.70;;
36291;SDS011;22327;51.208;6.418;2022-07-21T06:35:23;6.18;;;4.32;;
36291;SDS011;22327;51.208;6.418;2022-07-21T06:37:48;7.57;;;4.90;;
36291;SDS011;22327;51.208;6.418;2022-07-21T06:40:14;5.97;;;5.18;;
36291;SDS011;22327;51.208;6.418;2022-07-21T06:42:40;7.10;;;5.50;;
36291;SDS011;22327;51.208;6.418;2022-07-21T06:45:05;6.50;;;5.05;;
36291;SDS011;22327;51.208;6.418;2022-07-21T06:47:31;7.95;;;5.40;;
36291;SDS011;22327;51.208;6.418;2022-07-21T06:49:57;7.50;;;5.03;;
36291;SDS011;22327;51.208;6.418;2022-07-21T06:52:31;6.00;;;5.13;;
36291;SDS011;22327;51.208;6.418;2022-07-21T06:54:57;5.53;;;5.00;;
36291;SDS011;22327;51.208;6.418;2022-07-21T06:57:22;8.60;;;5.82;;
36291;SDS011;22327;51.208;6.418;2022-07-21T06:59:48;7.18;;;4.70;;
36291;SDS011;22327;51.208;6.418;2022-07-21T07:02:14;5.55;;;4.45;;
36291;SDS011;22327;51.208;6.418;2022-07-21T07:04:40;7.32;;;4.70;;
36291;SDS011;22327;51.208;6.418;2022-07-21T07:07:05;5.00;;;4.43;;
36291;SDS011;22327;51.208;6.418;2022-07-21T07:09:31;6.70;;;4.43;;
36291;SDS011;22327;51.208;6.418;2022-07-21T07:11:56;5.88;;;4.32;;
36291;SDS011;22327;51.208;6.418;2022-07-21T07:14:32;4.50;;;4.10;;
36291;SDS011;22327;51.208;6.418;2022-07-21T07:16:59;5.32;;;4.05;;
36291;SDS011;22327;51.208;6.418;2022-07-21T07:19:25;4.03;;;3.63;;
36291;SDS011;22327;51.208;6.418;2022-07-21T07:21:51;6.22;;;3.50;;
36291;SDS011;22327;51.208;6.418;2022-07-21T07:24:17;4.30;;;3.65;;
36291;SDS011;22327;51.208;6.418;2022-07-21T07:26:42;5.43;;;4.13;;
36291;SDS011;22327;51.208;6.418;2022-07-21T07:29:08;4.07;;;3.67;;
36291;SDS011;22327;51.208;6.418;2022-07-21T07:31:34;5.57;;;4.55;;
36291;SDS011;22327;51.208;6.418;2022-07-21T07:34:00;5.07;;;4.38;;
36291;SDS011;22327;51.208;6.418;2022-07-21T07:36:26;6.90;;;4.35;;
36291;SDS011;22327;51.208;6.418;2022-07-21T07:38:52;6.60;;;4.40;;
36291;SDS011;22327;51.208;6.418;2022-07-21T07:41:19;5.35;;;4.10;;
36291;SDS011;22327;51.208;6.418;2022-07-21T07:43:45;6.80;;;4.78;;
36291;SDS011;22327;51.208;6.418;2022-07-21T07:46:11;5.03;;;4.13;;
36291;SDS011;22327;51.208;6.418;2022-07-21T07:48:37;5.95;;;4.65;;
36291;SDS011;22327;51.208;6.418;2022-07-21T07:51:03;4.75;;;4.35;;
36291;SDS011;22327;51.208;6.418;2022-07-21T07:53:29;5.22;;;4.72;;
36291;SDS011;22327;51.208;6.418;2022-07-21T07:55:55;5.65;;;4.72;;
36291;SDS011;22327;51.208;6.418;2022-07-21T07:58:20;7.25;;;5.40;;
36291;SDS011;22327;51.208;6.418;2022-07-21T08:00:46;6.63;;;5.00;;
36291;SDS011;22327;51.208;6.418;2022-07-21T08:03:12;6.78;;;5.32;;
36291;SDS011;22327;51.208;6.418;2022-07-21T08:05:37;6.40;;;5.90;;
36291;SDS011;22327;51.208;6.418;2022-07-21T08:08:03;6.13;;;5.38;;
36291;SDS011;22327;51.208;6.418;2022-07-21T08:10:29;6.22;;;5.57;;
36291;SDS011;22327;51.208;6.418;2022-07-21T08:12:55;6.88;;;5.03;;
36291;SDS011;22327;51.208;6.418;2022-07-21T08:15:20;5.80;;;5.20;;
36291;SDS011;22327;51.208;6.418;2022-07-21T08:17:46;6.32;;;4.85;;
36291;SDS011;22327;51.208;6.418;2022-07-21T08:20:11;7.18;;;5.20;;
36291;SDS011;22327;51.208;6.418;2022-07-21T08:22:37;5.25;;;4.75;;
36291;SDS011;22327;51.208;6.418;2022-07-21T08:25:03;6.13;;;5.53;;
36291;SDS011;22327;51.208;6.418;2022-07-21T08:27:29;5.88;;;5.15;;
36291;SDS011;22327;51.208;6.418;2022-07-21T08:29:54;6.30;;;5.05;;
36291;SDS011;22327;51.208;6.418;2022-07-21T08:32:20;7.45;;;5.78;;
36291;SDS011;22327;51.208;6.418;2022-07-21T08:34:45;8.88;;;5.53;;
36291;SDS011;22327;51.208;6.418;2022-07-21T08:37:11;5.97;;;5.38;;
36291;SDS011;22327;51.208;6.418;2022-07-21T08:39:37;5.93;;;4.60;;
36291;SDS011;22327;51.208;6.418;2022-07-21T08:42:04;6.35;;;4.72;;
36291;SDS011;22327;51.208;6.418;2022-07-21T08:44:31;6.32;;;4.68;;
36291;SDS011;22327;51.208;6.418;2022-07-21T08:46:57;5.03;;;4.57;;
36291;SDS011;22327;51.208;6.418;2022-07-21T08:49:23;5.10;;;4.60;;
36291;SDS011;22327;51.208;6.418;2022-07-21T08:51:49;5.97;;;4.80;;
36291;SDS011;22327;51.208;6.418;2022-07-21T08:54:16;6.82;;;4.78;;
36291;SDS011;22327;51.208;6.418;2022-07-21T08:56:42;5.85;;;4.60;;
36291;SDS011;22327;51.208;6.418;2022-07-21T08:59:08;6.35;;;5.07;;
36291;SDS011;22327;51.208;6.418;2022-07-21T09:01:34;7.32;;;5.82;;
36291;SDS011;22327;51.208;6.418;2022-07-21T09:06:49;6.03;;;5.45;;
36291;SDS011;22327;51.208;6.418;2022-07-21T09:09:19;6.43;;;5.35;;
36291;SDS011;22327;51.208;6.418;2022-07-21T09:11:46;8.55;;;5.50;;
36291;SDS011;22327;51.208;6.418;2022-07-21T09:14:13;5.65;;;5.03;;
36291;SDS011;22327;51.208;6.418;2022-07-21T09:19:16;5.95;;;4.93;;
36291;SDS011;22327;51.208;6.418;2022-07-21T09:21:45;6.25;;;4.82;;
36291;SDS011;22327;51.208;6.418;2022-07-21T09:24:18;6.80;;;5.43;;
36291;SDS011;22327;51.208;6.418;2022-07-21T09:26:56;7.63;;;5.22;;
36291;SDS011;22327;51.208;6.418;2022-07-21T09:29:25;6.55;;;5.05;;
36291;SDS011;22327;51.208;6.418;2022-07-21T09:31:51;7.05;;;5.03;;
36291;SDS011;22327;51.208;6.418;2022-07-21T09:34:17;6.50;;;5.10;;
36291;SDS011;22327;51.208;6.418;2022-07-21T09:36:55;9.43;;;5.38;;
36291;SDS011;22327;51.208;6.418;2022-07-21T09:42:13;7.93;;;5.65;;
36291;SDS011;22327;51.208;6.418;2022-07-21T09:44:48;6.70;;;5.53;;
36291;SDS011;22327;51.208;6.418;2022-07-21T09:47:16;6.75;;;6.05;;
36291;SDS011;22327;51.208;6.418;2022-07-21T09:49:43;7.47;;;6.18;;
36291;SDS011;22327;51.208;6.418;2022-07-21T09:52:23;9.98;;;6.35;;
36291;SDS011;22327;51.208;6.418;2022-07-21T09:54:54;7.25;;;6.50;;
36291;SDS011;22327;51.208;6.418;2022-07-21T09:57:21;8.23;;;6.72;;
36291;SDS011;22327;51.208;6.418;2022-07-21T09:59:47;7.80;;;7.00;;
36291;SDS011;22327;51.208;6.418;2022-07-21T10:02:18;7.80;;;6.72;;
36291;SDS011;22327;51.208;6.418;2022-07-21T10:04:55;7.75;;;7.05;;
36291;SDS011;22327;51.208;6.418;2022-07-21T10:07:32;9.40;;;7.25;;
36291;SDS011;22327;51.208;6.418;2022-07-21T10:10:00;7.80;;;6.78;;
36291;SDS011;22327;51.208;6.418;2022-07-21T10:12:26;7.93;;;6.65;;
36291;SDS011;22327;51.208;6.418;2022-07-21T10:14:53;10.32;;;6.85;;
36291;SDS011;22327;51.208;6.418;2022-07-21T10:17:20;6.75;;;6.05;;
36291;SDS011;22327;51.208;6.418;2022-07-21T10:25:23;5.53;;;5.00;;
36291;SDS011;22327;51.208;6.418;2022-07-21T10:30:36;6.53;;;5.90;;
36291;SDS011;22327;51.208;6.418;2022-07-21T10:33:06;6.80;;;5.75;;
36291;SDS011;22327;51.208;6.418;2022-07-21T10:35:32;6.93;;;5.97;;
36291;SDS011;22327;51.208;6.418;2022-07-21T10:37:59;8.52;;;7.43;;
36291;SDS011;22327;51.208;6.418;2022-07-21T10:47:58;7.85;;;7.05;;
36291;SDS011;22327;51.208;6.418;2022-07-21T10:50:31;8.27;;;6.75;;
36291;SDS011;22327;51.208;6.418;2022-07-21T10:52:59;7.35;;;5.68;;
36291;SDS011;22327;51.208;6.418;2022-07-21T10:55:28;7.30;;;6.55;;
36291;SDS011;22327;51.208;6.418;2022-07-21T11:00:57;7.20;;;6.47;;
36291;SDS011;22327;51.208;6.418;2022-07-21T11:03:27;7.07;;;6.38;;
36291;SDS011;22327;51.208;6.418;2022-07-21T11:11:07;7.07;;;4.95;;
36291;SDS011;22327;51.208;6.418;2022-07-21T11:21:58;5.63;;;5.03;;
36291;SDS011;22327;51.208;6.418;2022-07-21T11:24:26;5.95;;;4.80;;
36291;SDS011;22327;51.208;6.418;2022-07-21T11:26:59;4.95;;;4.35;;
36291;SDS011;22327;51.208;6.418;2022-07-21T11:32:01;4.90;;;4.40;;
36291;SDS011;22327;51.208;6.418;2022-07-21T11:34:36;4.35;;;3.95;;
36291;SDS011;22327;51.208;6.418;2022-07-21T11:37:07;4.30;;;3.90;;
36291;SDS011;22327;51.208;6.418;2022-07-21T11:39:34;4.53;;;4.13;;
36291;SDS011;22327;51.208;6.418;2022-07-21T11:42:03;6.07;;;4.50;;
36291;SDS011;22327;51.208;6.418;2022-07-21T11:44:30;5.53;;;4.35;;
36291;SDS011;22327;51.208;6.418;2022-07-21T11:46:58;5.82;;;4.45;;
36291;SDS011;22327;51.208;6.418;2022-07-21T11:49:25;4.43;;;3.95;;
36291;SDS011;22327;51.208;6.418;2022-07-21T11:51:56;5.22;;;4.13;;
36291;SDS011;22327;51.208;6.418;2022-07-21T11:57:04;4.78;;;3.60;;
36291;SDS011;22327;51.208;6.418;2022-07-21T11:59:32;4.00;;;3.55;;
36291;SDS011;22327;51.208;6.418;2022-07-21T12:02:01;5.70;;;3.17;;
36291;SDS011;22327;51.208;6.418;2022-07-21T12:07:25;2.67;;;2.47;;
36291;SDS011;22327;51.208;6.418;2022-07-21T12:09:54;3.20;;;2.90;;
36291;SDS011;22327;51.208;6.418;2022-07-21T12:12:37;3.47;;;2.67;;
36291;SDS011;22327;51.208;6.418;2022-07-21T12:17:41;2.92;;;2.63;;
36291;SDS011;22327;51.208;6.418;2022-07-21T12:20:23;3.08;;;2.88;;
36291;SDS011;22327;51.208;6.418;2022-07-21T12:22:53;2.33;;;2.10;;
36291;SDS011;22327;51.208;6.418;2022-07-21T12:25:29;2.38;;;2.13;;
36291;SDS011;22327;51.208;6.418;2022-07-21T12:27:59;3.58;;;2.20;;
36291;SDS011;22327;51.208;6.418;2022-07-21T12:33:11;2.63;;;2.38;;
36291;SDS011;22327;51.208;6.418;2022-07-21T12:35:44;3.40;;;2.60;;
36291;SDS011;22327;51.208;6.418;2022-07-21T12:38:21;2.63;;;2.40;;
36291;SDS011;22327;51.208;6.418;2022-07-21T12:40:48;4.00;;;2.95;;
36291;SDS011;22327;51.208;6.418;2022-07-21T12:43:20;3.60;;;2.92;;
36291;SDS011;22327;51.208;6.418;2022-07-21T12:45:50;3.75;;;3.40;;
36291;SDS011;22327;51.208;6.418;2022-07-21T12:48:24;3.30;;;3.00;;
36291;SDS011;22327;51.208;6.418;2022-07-21T12:51:05;4.53;;;4.13;;
36291;SDS011;22327;51.208;6.418;2022-07-21T12:53:32;5.50;;;4.70;;
36291;SDS011;22327;51.208;6.418;2022-07-21T12:55:59;6.18;;;5.40;;
36291;SDS011;22327;51.208;6.418;2022-07-21T12:58:24;6.40;;;5.80;;
36291;SDS011;22327;51.208;6.418;2022-07-21T13:00:50;9.68;;;6.10;;
36291;SDS011;22327;51.208;6.418;2022-07-21T13:03:16;8.27;;;6.78;;
36291;SDS011;22327;51.208;6.418;2022-07-21T13:05:42;6.63;;;6.03;;
36291;SDS011;22327;51.208;6.418;2022-07-21T13:08:07;6.38;;;5.78;;
36291;SDS011;22327;51.208;6.418;2022-07-21T13:10:33;6.53;;;5.93;;
36291;SDS011;22327;51.208;6.418;2022-07-21T13:12:59;6.70;;;6.07;;
36291;SDS011;22327;51.208;6.418;2022-07-21T13:15:25;7.88;;;6.38;;
36291;SDS011;22327;51.208;6.418;2022-07-21T13:17:51;8.13;;;7.28;;
36291;SDS011;22327;51.208;6.418;2022-07-21T13:20:16;9.05;;;7.38;;
36291;SDS011;22327;51.208;6.418;2022-07-21T13:22:42;9.57;;;7.50;;
36291;SDS011;22327;51.208;6.418;2022-07-21T13:25:08;8.65;;;7.80;;
36291;SDS011;22327;51.208;6.418;2022-07-21T13:27:35;7.75;;;6.78;;
36291;SDS011;22327;51.208;6.418;2022-07-21T13:30:02;8.38;;;7.57;;
36291;SDS011;22327;51.208;6.418;2022-07-21T13:32:29;9.10;;;6.93;;
36291;SDS011;22327;51.208;6.418;2022-07-21T13:34:55;8.95;;;8.00;;
36291;SDS011;22327;51.208;6.418;2022-07-21T13:37:20;9.95;;;7.03;;
36291;SDS011;22327;51.208;6.418;2022-07-21T13:39:46;9.70;;;8.00;;
36291;SDS011;22327;51.208;6.418;2022-07-21T13:42:12;9.15;;;8.20;;
36291;SDS011;22327;51.208;6.418;2022-07-21T13:44:37;11.13;;;8.52;;
36291;SDS011;22327;51.208;6.418;2022-07-21T13:47:03;9.00;;;8.10;;
36291;SDS011;22327;51.208;6.418;2022-07-21T13:49:29;9.30;;;7.47;;
36291;SDS011;22327;51.208;6.418;2022-07-21T13:51:54;7.30;;;6.45;;
36291;SDS011;22327;51.208;6.418;2022-07-21T13:54:20;6.55;;;5.93;;
36291;SDS011;22327;51.208;6.418;2022-07-21T13:56:46;7.30;;;5.70;;
36291;SDS011;22327;51.208;6.418;2022-07-21T13:59:12;6.60;;;4.80;;
36291;SDS011;22327;51.208;6.418;2022-07-21T14:01:38;4.95;;;4.20;;
36291;SDS011;22327;51.208;6.418;2022-07-21T14:04:03;4.70;;;4.20;;
36291;SDS011;22327;51.208;6.418;2022-07-21T14:06:29;34.20;;;28.40;;
36291;SDS011;22327;51.208;6.418;2022-07-21T14:08:55;51.47;;;39.60;;
36291;SDS011;22327;51.208;6.418;2022-07-21T14:11:20;51.47;;;36.75;;
36291;SDS011;22327;51.208;6.418;2022-07-21T14:13:48;46.40;;;35.33;;
36291;SDS011;22327;51.208;6.418;2022-07-21T14:16:14;30.60;;;23.75;;
36291;SDS011;22327;51.208;6.418;2022-07-21T14:18:39;30.38;;;21.77;;
36291;SDS011;22327;51.208;6.418;2022-07-21T14:21:05;22.10;;;16.45;;
36291;SDS011;22327;51.208;6.418;2022-07-21T14:23:31;26.58;;;18.55;;
36291;SDS011;22327;51.208;6.418;2022-07-21T14:25:57;15.88;;;12.55;;
36291;SDS011;22327;51.208;6.418;2022-07-21T14:28:23;12.63;;;9.50;;
36291;SDS011;22327;51.208;6.418;2022-07-21T14:30:50;9.20;;;7.63;;
36291;SDS011;22327;51.208;6.418;2022-07-21T14:33:16;7.72;;;7.03;;
36291;SDS011;22327;51.208;6.418;2022-07-21T14:35:42;8.43;;;7.63;;
36291;SDS011;22327;51.208;6.418;2022-07-21T14:38:08;6.97;;;6.38;;
36291;SDS011;22327;51.208;6.418;2022-07-21T14:40:34;5.95;;;5.43;;
36291;SDS011;22327;51.208;6.418;2022-07-21T14:43:00;5.13;;;4.63;;
36291;SDS011;22327;51.208;6.418;2022-07-21T14:45:26;4.22;;;3.83;;
36291;SDS011;22327;51.208;6.418;2022-07-21T14:47:53;3.67;;;3.38;;
36291;SDS011;22327;51.208;6.418;2022-07-21T14:50:21;5.65;;;3.95;;
36291;SDS011;22327;51.208;6.418;2022-07-21T14:52:47;5.07;;;4.03;;
36291;SDS011;22327;51.208;6.418;2022-07-21T14:55:13;5.18;;;3.88;;
36291;SDS011;22327;51.208;6.418;2022-07-21T14:57:39;3.85;;;3.55;;
36291;SDS011;22327;51.208;6.418;2022-07-21T15:00:05;6.25;;;2.78;;
36291;SDS011;22327;51.208;6.418;2022-07-21T15:02:32;3.30;;;3.10;;
36291;SDS011;22327;51.208;6.418;2022-07-21T15:04:58;2.40;;;2.20;;
36291;SDS011;22327;51.208;6.418;2022-07-21T15:07:24;3.78;;;2.63;;
36291;SDS011;22327;51.208;6.418;2022-07-21T15:09:49;1.95;;;1.83;;
36291;SDS011;22327;51.208;6.418;2022-07-21T15:12:15;2.30;;;2.10;;
36291;SDS011;22327;51.208;6.418;2022-07-21T15:14:41;3.88;;;2.10;;
36291;SDS011;22327;51.208;6.418;2022-07-21T15:17:07;2.30;;;2.00;;
36291;SDS011;22327;51.208;6.418;2022-07-21T15:19:33;2.65;;;2.45;;
36291;SDS011;22327;51.208;6.418;2022-07-21T15:21:58;2.60;;;2.40;;
36291;SDS011;22327;51.208;6.418;2022-07-21T15:24:24;3.20;;;2.90;;
36291;SDS011;22327;51.208;6.418;2022-07-21T15:26:50;3.35;;;3.08;;
36291;SDS011;22327;51.208;6.418;2022-07-21T15:29:16;3.33;;;3.00;;
36291;SDS011;22327;51.208;6.418;2022-07-21T15:31:41;3.47;;;3.17;;
36291;SDS011;22327;51.208;6.418;2022-07-21T15:34:08;3.40;;;3.10;;
36291;SDS011;22327;51.208;6.418;2022-07-21T15:36:35;4.68;;;3.45;;